Time;durP1;ratioP1;P1;durP2;ratioP2;P2;SDS_P1;SDS_P2;PMS_P1;PMS_P2;Temp;Humidity;BMP_temperature;BMP_pressure;BME280_temperature;BME280_humidity;BME280_pressure;Samples;Min_cycle;Max_cycle;Signal;HPM_P1;HPM_P2
2022/05/24 00:00:32;;;;;;;3.92;1.90;;;;;;;10.85;32.37;98409.63;5014516;28;20487;-58
2022/05/24 00:02:58;;;;;;;4.00;1.80;;;;;;;11.15;33.12;98455.84;5014504;28;20056;-57
2022/05/24 00:05:25;;;;;;;3.58;1.90;;;;;;;11.18;33.38;98447.94;5014303;28;20123;-57
2022/05/24 00:07:52;;;;;;;4.65;2.00;;;;;;;11.18;32.56;98458.28;5014443;28;20125;-57
2022/05/24 00:10:25;;;;;;;3.45;1.73;;;;;;;11.14;32.72;98448.97;5014527;28;20026;-58
2022/05/24 00:12:51;;;;;;;3.40;1.60;;;;;;;11.16;34.49;98456.69;5014384;28;20040;-57
2022/05/24 00:15:19;;;;;;;3.20;1.67;;;;;;;11.10;33.27;98464.72;5014107;28;20038;-57
2022/05/24 00:17:49;;;;;;;2.75;1.80;;;;;;;11.10;32.46;98459.53;5014513;28;20036;-57
2022/05/24 00:20:15;;;;;;;4.07;1.67;;;;;;;11.13;32.30;98459.41;5014220;28;20030;-57
2022/05/24 00:22:41;;;;;;;3.17;2.08;;;;;;;11.07;32.93;98463.09;5014294;28;20030;-57
2022/05/24 00:25:07;;;;;;;2.22;1.65;;;;;;;11.08;32.47;98456.19;5013883;28;20025;-58
2022/05/24 00:27:33;;;;;;;6.07;1.73;;;;;;;11.12;33.00;98455.97;5013782;28;20483;-57
2022/05/24 00:29:59;;;;;;;4.65;2.33;;;;;;;11.13;33.09;98457.69;5014338;28;20133;-57
2022/05/24 00:32:24;;;;;;;3.90;2.03;;;;;;;11.12;33.11;98452.56;4996372;28;20049;-57
2022/05/24 00:34:50;;;;;;;3.03;1.60;;;;;;;11.10;33.08;98465.59;5014092;28;20028;-58
2022/05/24 00:37:19;;;;;;;3.75;1.70;;;;;;;10.75;32.52;98418.72;5013917;28;20100;-58
2022/05/24 00:39:46;;;;;;;5.45;1.80;;;;;;;11.01;34.20;98466.81;5013746;28;20033;-57
2022/05/24 00:42:21;;;;;;;3.72;1.80;;;;;;;11.00;33.21;98477.22;5013925;28;20477;-58
2022/05/24 00:44:54;;;;;;;2.08;1.85;;;;;;;10.66;34.10;98413.91;5013823;28;20447;-57
2022/05/24 00:47:30;;;;;;;4.00;1.92;;;;;;;10.97;33.47;98465.25;5014027;28;20030;-56
2022/05/24 00:50:18;;;;;;;4.15;2.13;;;;;;;10.94;33.67;98470.56;5014049;28;20029;-57
2022/05/24 00:52:58;;;;;;;4.30;1.60;;;;;;;10.79;34.59;98469.47;5013220;28;20041;-56
2022/05/24 00:55:26;;;;;;;6.03;1.98;;;;;;;10.84;33.69;98471.88;5004000;28;20076;-56
2022/05/24 00:58:01;;;;;;;3.63;1.80;;;;;;;10.85;34.04;98474.38;5013200;28;20034;-56
2022/05/24 01:00:27;;;;;;;2.72;2.00;;;;;;;10.62;34.23;98449.47;5012912;28;20061;-57
2022/05/24 01:02:53;;;;;;;2.78;1.70;;;;;;;10.71;33.99;98468.94;5012527;28;20529;-57
2022/05/24 01:05:25;;;;;;;6.15;1.88;;;;;;;10.75;32.64;98483.47;5013557;28;20034;-56
2022/05/24 01:07:51;;;;;;;3.20;1.67;;;;;;;10.65;33.26;98458.84;5012806;28;20050;-56
2022/05/24 01:10:29;;;;;;;2.92;1.70;;;;;;;10.66;33.04;98447.56;5013271;28;20474;-57
2022/05/24 01:13:02;;;;;;;2.10;1.48;;;;;;;10.42;33.68;98415.78;5013303;28;20033;-56
2022/05/24 01:15:28;;;;;;;3.55;1.75;;;;;;;10.69;32.96;98463.00;5013209;28;20018;-57
2022/05/24 01:17:55;;;;;;;3.50;1.63;;;;;;;10.39;33.81;98408.16;5013542;28;20486;-57
2022/05/24 01:20:22;;;;;;;2.92;1.58;;;;;;;10.77;34.02;98466.09;5013104;28;20029;-57
2022/05/24 01:23:19;;;;;;;3.22;1.75;;;;;;;10.65;34.20;98451.09;5013153;28;20026;-57
2022/05/24 01:26:12;;;;;;;3.97;1.65;;;;;;;10.66;34.25;98476.91;5012849;28;20421;-57
2022/05/24 01:28:45;;;;;;;4.57;2.00;;;;;;;10.62;34.17;98487.47;5012775;28;20022;-57
2022/05/24 01:31:11;;;;;;;2.60;1.95;;;;;;;10.58;34.34;98478.97;5013216;28;20084;-56
2022/05/24 01:36:25;;;;;;;2.47;1.77;;;;;;;10.38;33.80;98464.25;5012763;28;20118;-57
2022/05/24 01:38:54;;;;;;;2.13;1.80;;;;;;;10.70;34.06;98480.22;5013074;28;20026;-57
2022/05/24 01:41:27;;;;;;;4.15;1.80;;;;;;;10.64;34.40;98488.25;5012741;28;20052;-57
2022/05/24 01:43:55;;;;;;;3.30;1.83;;;;;;;10.22;35.41;98426.91;5013008;28;20121;-57
2022/05/24 01:46:40;;;;;;;3.15;1.70;;;;;;;10.32;35.80;98442.03;5012650;28;20029;-57
2022/05/24 01:49:10;;;;;;;8.77;2.28;;;;;;;10.52;35.19;98467.13;5012746;28;20026;-56
2022/05/24 01:51:46;;;;;;;2.67;1.98;;;;;;;10.31;34.72;98416.22;5012546;28;20467;-57
2022/05/24 01:54:14;;;;;;;3.90;2.22;;;;;;;10.23;34.50;98420.84;5002762;28;20030;-57
2022/05/24 01:56:47;;;;;;;2.97;1.90;;;;;;;10.61;34.61;98491.78;5012602;28;20092;-57
2022/05/24 01:59:16;;;;;;;3.03;2.17;;;;;;;10.22;33.95;98427.78;5012234;28;20049;-57
2022/05/24 02:01:54;;;;;;;3.58;2.30;;;;;;;10.53;33.10;98476.59;5012125;28;20388;-57
2022/05/24 02:04:23;;;;;;;5.80;2.30;;;;;;;10.16;34.37;98415.94;5012503;28;20125;-58
2022/05/24 02:07:16;;;;;;;5.10;2.30;;;;;;;10.26;32.87;98423.31;5012252;28;20022;-57
2022/05/24 02:09:47;;;;;;;4.00;2.00;;;;;;;10.16;34.54;98417.66;5012425;28;20113;-56
2022/05/24 02:12:21;;;;;;;5.07;2.20;;;;;;;10.16;34.00;98409.91;5012601;28;20029;-56
2022/05/24 02:14:55;;;;;;;6.28;2.28;;;;;;;10.57;34.22;98472.09;4992898;28;20433;-56
2022/05/24 02:17:24;;;;;;;3.00;2.03;;;;;;;10.23;34.89;98431.19;5009488;28;20058;-58
2022/05/24 02:19:56;;;;;;;3.53;2.08;;;;;;;10.49;33.69;98477.59;5011206;28;20546;-57
2022/05/24 02:22:26;;;;;;;3.65;1.98;;;;;;;10.58;34.23;98491.09;5012156;28;20070;-57
2022/05/24 02:25:10;;;;;;;3.03;2.20;;;;;;;10.52;34.75;98477.47;5012298;28;20025;-57
2022/05/24 02:27:43;;;;;;;2.72;2.00;;;;;;;10.35;33.81;98441.94;5012052;28;20038;-57
2022/05/24 02:30:11;;;;;;;3.15;2.00;;;;;;;10.57;33.90;98476.44;5012311;28;20066;-57
2022/05/24 02:32:37;;;;;;;2.65;1.83;;;;;;;10.46;32.68;98476.88;5010820;28;20435;-57
2022/05/24 02:35:03;;;;;;;4.18;2.05;;;;;;;10.56;33.63;98485.97;5012065;28;20034;-58
2022/05/24 02:37:29;;;;;;;3.55;1.77;;;;;;;10.48;33.83;98478.50;5010916;28;20064;-57
2022/05/24 02:42:38;;;;;;;6.25;2.35;;;;;;;10.54;32.57;98477.41;5012147;28;20022;-55
2022/05/24 02:45:04;;;;;;;5.85;1.80;;;;;;;10.48;33.51;98480.25;5012145;28;20026;-55
2022/05/24 02:47:30;;;;;;;4.75;1.77;;;;;;;10.58;33.31;98473.78;5010629;28;20494;-56
2022/05/24 02:49:56;;;;;;;3.58;2.20;;;;;;;10.56;33.67;98467.00;5012199;28;20108;-57
2022/05/24 02:52:22;;;;;;;4.97;2.50;;;;;;;10.60;33.90;98477.16;5012047;28;20463;-57
2022/05/24 02:54:47;;;;;;;3.80;2.20;;;;;;;10.56;34.19;98462.69;5004440;28;20041;-57
2022/05/24 02:57:13;;;;;;;4.43;2.10;;;;;;;10.54;32.99;98474.81;5011889;28;20398;-57
2022/05/24 02:59:39;;;;;;;2.97;2.08;;;;;;;10.66;32.48;98473.47;5010587;28;20029;-55
2022/05/24 03:02:05;;;;;;;4.55;2.35;;;;;;;10.73;34.45;98467.16;5011054;28;20112;-56
2022/05/24 03:04:31;;;;;;;3.65;1.88;;;;;;;10.79;33.96;98472.06;5012026;28;20185;-56
2022/05/24 03:09:41;;;;;;;7.65;2.42;;;;;;;10.79;33.46;98459.13;5012024;28;20116;-56
2022/05/24 03:14:54;;;;;;;13.52;3.35;;;;;;;10.82;34.05;98464.16;5011941;28;20041;-57
2022/05/24 03:17:20;;;;;;;4.57;2.00;;;;;;;10.69;34.39;98453.47;5011463;28;20425;-56
2022/05/24 03:19:47;;;;;;;4.53;1.90;;;;;;;10.77;34.74;98442.78;5011608;28;20022;-56
2022/05/24 03:22:13;;;;;;;3.15;2.05;;;;;;;10.81;34.59;98452.13;5011830;28;20481;-56
2022/05/24 03:24:39;;;;;;;4.85;1.98;;;;;;;10.77;34.90;98460.91;5011610;28;20117;-56
2022/05/24 03:27:11;;;;;;;3.22;1.90;;;;;;;10.83;34.79;98471.03;5011262;28;20375;-57
2022/05/24 03:29:38;;;;;;;4.28;1.85;;;;;;;10.86;35.14;98470.91;5011871;28;20455;-58
2022/05/24 03:32:06;;;;;;;3.95;1.92;;;;;;;10.78;33.74;98467.78;5013956;28;20396;-57
2022/05/24 03:34:31;;;;;;;3.45;1.83;;;;;;;10.80;34.26;98459.94;5015352;28;20080;-57
2022/05/24 03:36:57;;;;;;;2.83;1.98;;;;;;;10.71;34.11;98451.66;5014734;28;20025;-58
2022/05/24 03:39:22;;;;;;;5.53;2.00;;;;;;;10.76;34.88;98456.66;5014987;28;20038;-57
2022/05/24 03:41:48;;;;;;;7.32;2.42;;;;;;;10.77;33.90;98467.84;5015242;28;20026;-57
2022/05/24 03:44:13;;;;;;;4.28;2.20;;;;;;;10.83;33.81;98471.03;5014682;28;20030;-57
2022/05/24 03:46:40;;;;;;;4.97;2.20;;;;;;;10.87;33.89;98470.00;5014655;28;20022;-57
2022/05/24 03:49:05;;;;;;;5.40;2.40;;;;;;;10.93;35.05;98452.50;5014787;28;20022;-57
2022/05/24 03:51:31;;;;;;;5.78;2.25;;;;;;;10.85;35.34;98455.44;5013979;28;20473;-57
2022/05/24 03:53:56;;;;;;;4.32;2.30;;;;;;;10.85;35.18;98448.50;5006847;28;20105;-58
2022/05/24 03:56:23;;;;;;;4.38;2.20;;;;;;;10.86;34.70;98445.00;5011344;28;20026;-60
2022/05/24 03:58:49;;;;;;;4.38;2.22;;;;;;;10.88;35.24;98437.16;5014666;28;20030;-58
2022/05/24 04:01:15;;;;;;;7.68;1.73;;;;;;;10.91;35.56;98446.56;5014415;28;20049;-57
2022/05/24 04:03:40;;;;;;;4.03;2.20;;;;;;;11.01;35.33;98455.59;5014715;28;20141;-58
2022/05/24 04:06:06;;;;;;;5.68;2.47;;;;;;;11.10;37.22;98447.44;5013299;28;20091;-58
2022/05/24 04:08:31;;;;;;;5.60;2.03;;;;;;;11.11;35.66;98433.56;5014200;28;20029;-57
2022/05/24 04:11:00;;;;;;;2.90;2.38;;;;;;;11.10;35.80;98446.59;5014523;28;20041;-58
2022/05/24 04:13:26;;;;;;;6.88;2.17;;;;;;;11.06;35.28;98445.91;5014469;28;20038;-57
2022/05/24 04:15:51;;;;;;;8.27;2.55;;;;;;;11.02;34.18;98450.34;5014160;28;20022;-58
2022/05/24 04:18:17;;;;;;;3.63;2.47;;;;;;;10.98;35.64;98456.56;5014407;28;20474;-58
2022/05/24 04:20:42;;;;;;;5.78;2.40;;;;;;;10.89;36.31;98469.94;5013907;28;20049;-57
2022/05/24 04:23:12;;;;;;;5.43;1.92;;;;;;;10.95;35.68;98463.66;5014198;28;20044;-58
2022/05/24 04:25:38;;;;;;;10.90;2.40;;;;;;;11.02;37.10;98465.06;5013844;28;20022;-57
2022/05/24 04:28:04;;;;;;;6.18;2.35;;;;;;;11.09;36.31;98456.13;5013445;28;20489;-57
2022/05/24 04:30:30;;;;;;;5.90;2.53;;;;;;;10.96;35.85;98460.13;5014055;28;20061;-57
2022/05/24 04:32:56;;;;;;;3.97;2.17;;;;;;;10.87;35.14;98458.78;5013961;28;20108;-57
2022/05/24 04:35:21;;;;;;;8.15;2.22;;;;;;;10.88;34.88;98448.34;5013601;28;20026;-57
2022/05/24 04:37:47;;;;;;;5.28;2.20;;;;;;;10.79;33.89;98453.94;5013649;28;20029;-56
2022/05/24 04:40:13;;;;;;;4.97;2.42;;;;;;;10.90;33.01;98448.28;5013565;28;20033;-57
2022/05/24 04:42:40;;;;;;;6.40;2.20;;;;;;;10.94;33.23;98444.66;5012900;28;20065;-57
2022/05/24 04:45:09;;;;;;;5.32;2.15;;;;;;;10.67;32.27;98398.34;5013783;28;20667;-58
2022/05/24 04:47:36;;;;;;;4.28;2.50;;;;;;;11.15;31.81;98450.66;5013384;28;20033;-58
2022/05/24 04:50:07;;;;;;;5.45;2.30;;;;;;;11.21;31.61;98445.19;5013476;28;20137;-59
2022/05/24 04:52:36;;;;;;;9.73;2.33;;;;;;;10.81;31.27;98399.50;5012892;28;20144;-59
2022/05/24 04:55:05;;;;;;;6.68;2.25;;;;;;;11.05;31.02;98406.19;5001862;28;20163;-58
2022/05/24 04:57:31;;;;;;;8.77;2.40;;;;;;;11.31;31.66;98452.59;5013291;28;20131;-58
2022/05/24 04:59:56;;;;;;;8.05;2.13;;;;;;;11.35;30.41;98457.56;5013666;28;20034;-58
2022/05/24 05:02:22;;;;;;;6.30;2.30;;;;;;;11.56;32.25;98454.94;5011969;28;20399;-59
2022/05/24 05:04:48;;;;;;;5.45;2.42;;;;;;;11.37;31.08;98445.38;5013102;28;20475;-57
2022/05/24 05:07:19;;;;;;;6.50;2.15;;;;;;;11.47;30.91;98440.63;5013241;28;20045;-58
2022/05/24 05:09:47;;;;;;;7.40;2.10;;;;;;;11.49;30.14;98443.16;5013105;28;20393;-57
2022/05/24 05:12:13;;;;;;;8.52;2.08;;;;;;;11.48;30.95;98444.88;5013255;28;20356;-57
2022/05/24 05:14:40;;;;;;;7.63;1.90;;;;;;;11.37;30.36;98437.59;5012956;28;20096;-57
2022/05/24 05:17:05;;;;;;;5.28;1.63;;;;;;;11.43;30.14;98438.22;5008278;28;20030;-57
2022/05/24 05:19:31;;;;;;;3.78;1.83;;;;;;;11.50;29.87;98444.81;5002596;28;20021;-56
2022/05/24 05:21:57;;;;;;;4.70;2.20;;;;;;;11.68;30.52;98436.19;5012723;28;20040;-58
2022/05/24 05:24:24;;;;;;;2.95;2.20;;;;;;;11.84;30.26;98438.06;5012888;28;20037;-57
2022/05/24 05:26:50;;;;;;;3.45;1.80;;;;;;;11.83;29.53;98426.88;5012812;28;20022;-60
2022/05/24 05:29:16;;;;;;;4.85;2.00;;;;;;;11.81;30.13;98436.47;5012926;28;20133;-58
2022/05/24 05:31:41;;;;;;;3.45;1.85;;;;;;;11.67;30.22;98431.06;5012039;28;20443;-58
2022/05/24 05:34:07;;;;;;;2.85;1.70;;;;;;;11.70;29.78;98436.97;5011254;28;20025;-59
2022/05/24 05:36:34;;;;;;;5.75;2.08;;;;;;;11.70;30.31;98426.59;5027098;28;20112;-58
2022/05/24 05:38:59;;;;;;;3.20;1.80;;;;;;;11.74;28.76;98450.63;5011814;28;20471;-58
2022/05/24 05:41:30;;;;;;;14.90;2.20;;;;;;;11.46;28.84;98407.81;5011976;28;20030;-58
2022/05/24 05:43:57;;;;;;;7.22;1.83;;;;;;;11.51;28.44;98451.69;5011794;28;20026;-59
2022/05/24 05:46:22;;;;;;;6.45;1.48;;;;;;;11.51;29.01;98455.09;5011709;28;20042;-59
2022/05/24 05:48:48;;;;;;;3.75;1.60;;;;;;;11.63;29.56;98455.47;5012625;28;20514;-59
2022/05/24 05:51:16;;;;;;;4.25;1.80;;;;;;;11.66;29.95;98457.94;5012493;28;20104;-59
2022/05/24 05:53:42;;;;;;;5.40;1.83;;;;;;;11.65;30.34;98453.66;5006263;28;20042;-58
2022/05/24 05:56:14;;;;;;;8.90;2.13;;;;;;;11.59;30.39;98459.97;5005909;28;20065;-59
2022/05/24 05:58:39;;;;;;;;;;;;;;;11.51;31.62;98455.09;5012417;28;20026;-59
2022/05/24 06:01:05;;;;;;;4.25;1.48;;;;;;;11.61;29.78;98447.75;5012448;28;19915;-59
2022/05/24 06:03:30;;;;;;;5.38;1.63;;;;;;;11.64;29.16;98446.78;5012002;28;20070;-59
2022/05/24 06:06:00;;;;;;;5.35;1.65;;;;;;;11.49;29.36;98402.50;5011814;28;20034;-58
2022/05/24 06:08:26;;;;;;;1.98;1.45;;;;;;;11.80;29.11;98455.56;5011935;28;20028;-58
2022/05/24 06:10:53;;;;;;;4.47;1.92;;;;;;;11.83;30.40;98452.81;5012107;28;20520;-59
2022/05/24 06:13:19;;;;;;;5.75;2.05;;;;;;;11.83;30.04;98452.81;5012237;28;20538;-59
2022/05/24 06:15:49;;;;;;;4.18;1.73;;;;;;;11.79;29.67;98456.44;5010536;28;20109;-59
2022/05/24 06:18:14;;;;;;;2.85;1.50;;;;;;;11.94;29.75;98456.69;5012151;28;20029;-56
2022/05/24 06:20:40;;;;;;;3.42;1.63;;;;;;;12.02;30.02;98457.16;5012102;28;20495;-58
2022/05/24 06:23:06;;;;;;;3.67;1.77;;;;;;;12.07;30.58;98473.34;5011975;28;20074;-58
2022/05/24 06:25:31;;;;;;;5.20;1.92;;;;;;;12.03;29.51;98454.50;5012073;28;20117;-58
2022/05/24 06:27:57;;;;;;;1.90;1.40;;;;;;;12.06;30.82;98453.50;5011920;28;20054;-58
2022/05/24 06:30:23;;;;;;;4.10;1.92;;;;;;;12.22;29.91;98448.41;5012193;28;20046;-58
2022/05/24 06:32:50;;;;;;;4.68;1.70;;;;;;;12.18;29.47;98458.09;5012341;28;20022;-59
2022/05/24 06:35:17;;;;;;;2.95;1.60;;;;;;;12.41;29.80;98453.56;5011613;28;20104;-59
2022/05/24 06:37:43;;;;;;;4.43;1.60;;;;;;;12.33;30.25;98453.09;5011394;28;20026;-59
2022/05/24 06:40:11;;;;;;;2.97;1.92;;;;;;;12.28;30.55;98449.88;5010011;28;20045;-58
2022/05/24 06:42:37;;;;;;;4.93;1.85;;;;;;;12.13;29.94;98441.06;5008953;28;20037;-58
2022/05/24 06:45:04;;;;;;;3.97;1.70;;;;;;;12.24;30.56;98452.63;5011471;28;20038;-58
2022/05/24 06:47:29;;;;;;;3.67;1.60;;;;;;;12.20;31.21;98460.63;5011747;28;20026;-58
2022/05/24 06:49:56;;;;;;;5.20;1.92;;;;;;;12.05;30.09;98455.25;5010542;28;20048;-58
2022/05/24 06:52:22;;;;;;;5.65;2.08;;;;;;;12.14;30.70;98461.78;5011808;28;20032;-59
2022/05/24 06:54:48;;;;;;;6.03;1.80;;;;;;;12.25;30.59;98467.28;5026611;28;20037;-59
2022/05/24 06:57:13;;;;;;;5.00;1.70;;;;;;;12.18;31.02;98462.47;5011805;28;20041;-58
2022/05/24 07:02:26;;;;;;;4.40;1.80;;;;;;;12.17;32.62;98469.41;5011232;28;20253;-59
2022/05/24 07:05:12;;;;;;;12.35;2.15;;;;;;;12.08;32.85;98462.06;5011326;28;20399;-59
2022/05/24 07:07:38;;;;;;;2.75;1.60;;;;;;;12.11;33.22;98472.28;5015422;28;20109;-58
2022/05/24 07:10:07;;;;;;;5.80;2.05;;;;;;;11.68;34.64;98422.38;5015056;28;20045;-59
2022/05/24 07:12:34;;;;;;;2.38;1.60;;;;;;;11.86;34.69;98462.22;5016139;28;20497;-59
2022/05/24 07:14:59;;;;;;;4.88;2.08;;;;;;;12.04;34.76;98457.91;5015906;28;20033;-58
2022/05/24 07:17:26;;;;;;;7.10;1.80;;;;;;;12.17;34.70;98482.41;5015881;28;20038;-58
2022/05/24 07:19:52;;;;;;;4.20;1.92;;;;;;;11.68;34.16;98438.78;5015723;28;20351;-59
2022/05/24 07:22:19;;;;;;;8.45;2.13;;;;;;;12.04;35.50;98495.09;5015768;28;20025;-58
2022/05/24 07:24:48;;;;;;;10.88;2.47;;;;;;;11.88;35.32;98492.34;5014267;28;20364;-58
2022/05/24 07:27:17;;;;;;;3.58;1.70;;;;;;;11.34;36.34;98455.03;5015381;28;20033;-58
2022/05/24 07:29:43;;;;;;;5.22;2.28;;;;;;;11.27;37.17;98515.81;5015346;28;20060;-58
2022/05/24 07:32:09;;;;;;;6.60;2.08;;;;;;;11.34;37.53;98523.28;5015931;28;20057;-58
2022/05/24 07:34:36;;;;;;;6.30;2.10;;;;;;;11.23;38.31;98530.69;5014237;28;20542;-57
2022/05/24 07:37:04;;;;;;;6.90;1.75;;;;;;;10.93;39.63;98540.56;5014538;28;20475;-57
2022/05/24 07:39:29;;;;;;;4.85;1.88;;;;;;;10.84;39.54;98537.44;5015174;28;20135;-58
2022/05/24 07:47:19;;;;;;;7.38;1.90;;;;;;;10.72;40.15;98553.50;5014997;28;20071;-57
2022/05/24 07:49:44;;;;;;;7.95;1.98;;;;;;;10.55;41.15;98564.53;5014708;28;20129;-58
2022/05/24 07:52:10;;;;;;;8.30;2.08;;;;;;;10.70;41.34;98568.25;5014939;28;20095;-58
2022/05/24 07:54:36;;;;;;;7.72;2.13;;;;;;;10.55;42.24;98572.31;5013539;28;20440;-58
2022/05/24 07:57:03;;;;;;;6.00;2.17;;;;;;;10.60;41.15;98579.88;5013386;28;20026;-57
2022/05/24 07:59:29;;;;;;;4.97;2.15;;;;;;;10.34;42.12;98567.03;5014562;28;20026;-59
2022/05/24 08:01:55;;;;;;;4.53;2.00;;;;;;;9.90;42.80;98571.28;5014419;28;20108;-57
2022/05/24 08:04:20;;;;;;;5.28;2.00;;;;;;;10.22;42.78;98571.81;5014555;28;20034;-58
2022/05/24 08:06:47;;;;;;;5.10;2.03;;;;;;;10.16;43.35;98578.94;5014459;28;20438;-58
2022/05/24 08:09:13;;;;;;;5.32;1.95;;;;;;;10.07;44.41;98583.59;4981871;28;20072;-58
2022/05/24 08:11:38;;;;;;;9.60;2.17;;;;;;;10.15;43.48;98591.91;5014086;28;20053;-58
2022/05/24 08:14:06;;;;;;;7.30;2.20;;;;;;;9.95;44.75;98597.84;5013924;28;20030;-58
2022/05/24 08:16:32;;;;;;;7.93;1.88;;;;;;;9.90;45.32;98594.56;5012816;28;20029;-58
2022/05/24 08:18:59;;;;;;;6.38;2.47;;;;;;;10.15;45.13;98602.28;5014390;28;20117;-58
2022/05/24 08:21:28;;;;;;;5.50;1.98;;;;;;;10.23;44.91;98609.72;5014312;28;20034;-57
2022/05/24 08:23:54;;;;;;;6.35;2.22;;;;;;;10.30;45.28;98608.59;5014124;28;20034;-57
2022/05/24 08:26:20;;;;;;;7.85;2.75;;;;;;;10.49;45.25;98625.16;5014582;28;20121;-57
2022/05/24 08:28:50;;;;;;;11.20;2.70;;;;;;;10.48;44.47;98620.03;5013961;28;20109;-58
2022/05/24 08:31:17;;;;;;;4.18;2.50;;;;;;;10.42;45.81;98636.66;5014472;28;20061;-58
2022/05/24 08:33:44;;;;;;;7.25;2.33;;;;;;;10.39;44.43;98631.59;5013739;28;20125;-58
2022/05/24 08:36:10;;;;;;;4.95;2.00;;;;;;;10.34;44.70;98636.91;5012452;28;20033;-60
2022/05/24 08:38:36;;;;;;;10.88;2.58;;;;;;;10.42;45.07;98639.25;5010554;28;20033;-58
2022/05/24 08:41:06;;;;;;;10.75;2.47;;;;;;;10.37;44.02;98635.97;5010741;28;20057;-58
2022/05/24 08:50:14;;;;;;;4.25;2.08;;;;;;;10.44;45.59;98654.72;5017965;28;20482;-58
2022/05/24 08:52:47;;;;;;;4.85;2.15;;;;;;;9.97;46.01;98603.78;5014024;28;20050;-58
2022/05/24 08:55:14;;;;;;;2.95;1.88;;;;;;;10.39;44.89;98661.78;5013672;28;20441;-58
2022/05/24 08:57:46;;;;;;;5.60;2.47;;;;;;;10.27;45.64;98655.31;5000827;28;20034;-58
2022/05/24 09:00:17;;;;;;;4.78;2.08;;;;;;;10.40;45.57;98663.47;5013993;28;20030;-57
2022/05/24 09:02:46;;;;;;;3.97;2.13;;;;;;;10.43;46.51;98673.72;5013679;28;20048;-58
2022/05/24 09:05:22;;;;;;;5.72;2.50;;;;;;;10.39;47.41;98672.13;5013828;28;20034;-56
2022/05/24 09:08:07;;;;;;;3.38;2.10;;;;;;;10.17;45.86;98628.91;5013444;28;20085;-58
2022/05/24 09:10:44;;;;;;;7.10;1.90;;;;;;;10.14;46.09;98604.00;4995815;28;20030;-59
2022/05/24 09:13:37;;;;;;;7.20;2.33;;;;;;;10.70;46.43;98659.75;5013874;28;20048;-57
2022/05/24 09:16:12;;;;;;;5.50;2.20;;;;;;;10.35;44.75;98607.56;5012857;28;20826;-59
2022/05/24 09:18:58;;;;;;;3.10;1.83;;;;;;;11.03;44.94;98671.41;5013363;28;20487;-57
2022/05/24 09:21:26;;;;;;;5.30;2.05;;;;;;;11.21;44.37;98670.66;5013232;28;20040;-58
2022/05/24 09:24:28;;;;;;;3.33;2.30;;;;;;;11.00;44.17;98648.22;5013127;28;20477;-57
2022/05/24 09:27:15;;;;;;;5.47;2.35;;;;;;;11.08;44.87;98677.25;5013340;28;20084;-58
2022/05/24 09:30:20;;;;;;;4.07;2.17;;;;;;;11.20;45.05;98686.28;5012743;28;20025;-57
2022/05/24 09:32:49;;;;;;;6.45;2.15;;;;;;;11.18;43.83;98693.28;5013073;28;20057;-58
2022/05/24 09:35:18;;;;;;;5.53;2.10;;;;;;;11.28;43.53;98698.94;5012882;28;20029;-57
2022/05/24 09:38:08;;;;;;;4.80;2.30;;;;;;;10.97;43.46;98695.81;5012816;28;20084;-58
2022/05/24 09:40:54;;;;;;;4.68;2.13;;;;;;;10.69;44.88;98722.78;5013073;28;20037;-57
2022/05/24 09:43:29;;;;;;;5.57;2.30;;;;;;;10.30;44.96;98662.94;5012707;28;20490;-58
2022/05/24 09:45:58;;;;;;;11.38;3.40;;;;;;;10.32;44.93;98669.75;5012787;28;20029;-57
2022/05/24 09:48:27;;;;;;;7.40;2.60;;;;;;;10.64;46.56;98719.50;5012387;28;20037;-57
2022/05/24 09:50:55;;;;;;;3.47;2.40;;;;;;;10.29;46.27;98679.38;5012561;28;20107;-57
2022/05/24 09:53:27;;;;;;;3.90;2.22;;;;;;;10.76;46.80;98730.31;5010126;28;20026;-57
2022/05/24 09:55:59;;;;;;;6.53;2.15;;;;;;;10.26;46.78;98745.03;5002813;28;20029;-57
2022/05/24 09:58:31;;;;;;;3.78;2.20;;;;;;;10.17;46.78;98742.75;5011388;28;20088;-58
2022/05/24 10:01:07;;;;;;;4.05;2.60;;;;;;;10.28;46.68;98765.69;5012974;28;20053;-57
2022/05/24 10:03:37;;;;;;;8.52;2.42;;;;;;;10.16;47.33;98754.84;5012382;28;20037;-57
2022/05/24 10:06:10;;;;;;;3.85;2.25;;;;;;;10.12;47.23;98765.38;5012801;28;20038;-57
2022/05/24 10:08:55;;;;;;;6.03;2.60;;;;;;;10.19;47.90;98764.25;5012554;28;20025;-58
2022/05/24 10:11:47;;;;;;;3.50;2.08;;;;;;;10.17;46.86;98766.03;5012841;28;20479;-58
2022/05/24 10:14:23;;;;;;;;;;;;;;;10.12;47.19;98767.97;5013224;28;20029;-58
2022/05/24 10:16:54;;;;;;;6.82;4.30;;;;;;;10.20;47.36;98778.88;5012281;28;19921;-57
2022/05/24 10:19:27;;;;;;;7.57;2.28;;;;;;;9.94;48.32;98774.59;5012423;28;20072;-57
2022/05/24 10:22:37;;;;;;;5.30;2.15;;;;;;;9.38;49.34;98721.25;5012241;28;20092;-58
2022/05/24 10:25:15;;;;;;;6.03;2.20;;;;;;;9.70;49.08;98755.56;5011899;28;20574;-58
2022/05/24 10:28:07;;;;;;;3.40;2.33;;;;;;;9.99;48.85;98768.38;5012382;28;20025;-57
2022/05/24 10:31:05;;;;;;;7.72;2.28;;;;;;;9.87;47.97;98714.47;5012484;28;20403;-58
2022/05/24 10:40:21;;;;;;;4.80;2.33;;;;;;;10.27;48.66;98766.56;5011931;28;20030;-58
2022/05/24 10:43:09;;;;;;;3.72;2.13;;;;;;;10.18;47.56;98763.41;5014675;28;20027;-58
2022/05/24 10:45:50;;;;;;;5.03;2.45;;;;;;;9.94;47.90;98772.00;5011207;28;20014;-58
2022/05/24 10:48:38;;;;;;;4.63;2.53;;;;;;;10.24;50.08;98789.97;5016470;28;20088;-58
2022/05/24 10:51:48;;;;;;;5.25;2.55;;;;;;;10.25;47.84;98776.97;5015543;28;20037;-59
2022/05/24 10:54:26;;;;;;;2.83;2.38;;;;;;;10.10;49.31;98780.94;5006560;28;20046;-58
2022/05/24 10:57:10;;;;;;;6.18;2.30;;;;;;;9.79;49.41;98732.84;5015501;28;20513;-58
2022/05/24 10:59:50;;;;;;;5.05;2.30;;;;;;;10.12;49.06;98794.66;5012938;28;20061;-58
2022/05/24 11:02:52;;;;;;;8.82;2.10;;;;;;;10.02;49.42;98801.06;5012064;28;20046;-58
2022/05/24 11:05:31;;;;;;;3.22;2.05;;;;;;;9.97;49.05;98810.69;5013863;28;20493;-58
2022/05/24 11:08:21;;;;;;;43.88;8.85;;;;;;;9.92;48.03;98795.34;5014500;28;20049;-58
2022/05/24 11:10:49;;;;;;;29.35;7.03;;;;;;;9.57;48.85;98755.13;5014408;28;20034;-58
2022/05/24 11:13:20;;;;;;;4.40;2.05;;;;;;;9.33;48.26;98765.34;5014247;28;20034;-58
2022/05/24 11:16:03;;;;;;;4.07;1.50;;;;;;;9.74;47.52;98793.38;5014439;28;20061;-57
2022/05/24 11:18:29;;;;;;;3.88;1.50;;;;;;;9.82;47.06;98814.66;4994778;28;20109;-60
2022/05/24 11:21:11;;;;;;;5.20;1.67;;;;;;;9.83;46.34;98808.56;5012046;28;20229;-58
2022/05/24 11:23:46;;;;;;;3.75;1.70;;;;;;;10.01;46.22;98820.88;5014186;28;20041;-59
2022/05/24 11:26:24;;;;;;;2.95;1.65;;;;;;;9.96;47.00;98778.81;5014281;28;20483;-58
2022/05/24 11:29:10;;;;;;;1.77;1.30;;;;;;;10.09;46.10;98752.53;5013081;28;20021;-59
2022/05/24 11:31:35;;;;;;;4.10;1.40;;;;;;;10.54;46.45;98821.72;5001618;28;20034;-58
2022/05/24 11:34:03;;;;;;;3.30;1.63;;;;;;;10.62;46.18;98816.28;5014228;28;20100;-58
2022/05/24 11:36:53;;;;;;;2.58;1.45;;;;;;;10.76;45.50;98824.41;5013927;28;20045;-57
2022/05/24 11:39:21;;;;;;;4.32;1.30;;;;;;;10.74;43.27;98827.94;5009808;28;20526;-58
2022/05/24 11:41:47;;;;;;;2.58;1.40;;;;;;;10.55;43.98;98838.13;5002808;28;20033;-57
2022/05/24 11:44:32;;;;;;;3.05;1.15;;;;;;;10.46;43.99;98788.34;5005947;28;20030;-58
2022/05/24 11:46:58;;;;;;;2.45;1.20;;;;;;;10.87;42.13;98843.00;5013765;28;20129;-58
2022/05/24 11:49:27;;;;;;;1.95;1.20;;;;;;;10.93;42.02;98836.75;5013640;28;20124;-58
2022/05/24 11:51:57;;;;;;;4.93;1.17;;;;;;;10.99;41.64;98844.28;5013412;28;20083;-57
2022/05/24 11:54:22;;;;;;;1.92;1.20;;;;;;;11.07;42.14;98832.78;5014178;28;20037;-58
2022/05/24 11:56:52;;;;;;;1.27;1.00;;;;;;;10.98;41.37;98813.25;5013681;28;20446;-57
2022/05/24 11:59:40;;;;;;;2.53;0.95;;;;;;;11.08;42.58;98842.25;5013943;28;20041;-57
2022/05/24 12:02:32;;;;;;;2.00;0.88;;;;;;;11.13;40.63;98841.19;4973487;28;1170231;-58
2022/05/24 12:07:56;;;;;;;1.70;1.40;;;;;;;11.05;42.96;98859.59;5002566;28;20394;-58
2022/05/24 12:10:21;;;;;;;1.70;1.20;;;;;;;11.14;41.70;98858.41;5014696;28;20450;-57
2022/05/24 12:12:50;;;;;;;5.90;2.38;;;;;;;11.15;42.31;98864.44;5012768;28;20150;-58
2022/05/24 12:15:46;;;;;;;2.10;1.00;;;;;;;11.11;42.63;98863.69;5013772;28;20465;-58
2022/05/24 12:18:24;;;;;;;1.65;0.77;;;;;;;11.22;42.35;98871.09;5006367;28;20117;-58
2022/05/24 12:20:49;;;;;;;2.50;1.20;;;;;;;11.25;43.17;98870.97;5014033;28;20022;-58
2022/05/24 12:23:33;;;;;;;11.50;6.20;;;;;;;11.10;43.02;98854.25;5014083;28;20034;-59
2022/05/24 12:26:17;;;;;;;20.20;10.93;;;;;;;10.88;42.63;98830.88;5014021;28;20034;-59